createdAt,value
2018-11-06T00:00:16.966Z,56223.89
2018-11-06T00:02:47.151Z,56197.16
2018-11-06T00:05:17.972Z,56204.36
2018-11-06T00:07:47.050Z,56189.96
2018-11-06T00:10:16.202Z,56239.32
2018-11-06T00:12:45.331Z,56216.70
2018-11-06T00:15:14.485Z,56211.55
2018-11-06T00:17:43.649Z,56242.40
2018-11-06T00:20:13.880Z,56232.12
2018-11-06T00:22:43.025Z,56236.23
2018-11-06T00:25:13.099Z,56219.78
2018-11-06T00:27:42.273Z,56238.29
2018-11-06T00:30:13.647Z,56247.54
2018-11-06T00:32:43.334Z,56228.01
2018-11-06T00:35:14.575Z,56220.81
2018-11-06T00:37:44.637Z,56230.06
2018-11-06T00:40:13.989Z,56234.18
2018-11-06T00:42:43.124Z,56223.89
2018-11-06T00:45:14.545Z,56240.34
2018-11-06T00:47:43.715Z,56249.60
2018-11-06T00:50:13.892Z,56211.55
2018-11-06T00:52:43.880Z,56255.77
2018-11-06T00:55:13.039Z,56244.46
2018-11-06T00:57:43.405Z,56248.57
2018-11-06T01:00:15.109Z,56244.46
2018-11-06T01:02:44.338Z,56203.33
2018-11-06T01:05:14.152Z,56213.61
2018-11-06T01:07:43.947Z,56222.87
2018-11-06T01:10:13.080Z,56239.32
2018-11-06T01:12:42.216Z,56260.91
2018-11-06T01:15:13.638Z,56214.64
2018-11-06T01:17:43.793Z,56221.84
2018-11-06T01:20:15.300Z,56232.12
2018-11-06T01:22:44.710Z,56190.99
2018-11-06T01:25:14.239Z,56255.77
2018-11-06T01:27:43.381Z,56228.01
2018-11-06T01:30:16.286Z,56235.20
2018-11-06T01:32:46.015Z,56216.70
2018-11-06T01:35:15.814Z,56240.34
2018-11-06T01:37:45.605Z,56221.84
2018-11-06T01:40:15.869Z,56236.23
2018-11-06T01:42:45.535Z,56255.77
2018-11-06T01:45:15.683Z,56247.54
2018-11-06T01:47:44.831Z,56221.84
2018-11-06T01:50:15.014Z,56219.78
2018-11-06T01:52:45.218Z,56225.95
2018-11-06T01:55:14.398Z,56219.78
2018-11-06T01:57:43.539Z,56248.57
2018-11-06T02:00:15.312Z,56246.52
2018-11-06T02:02:44.447Z,56252.69
2018-11-06T02:05:14.791Z,56228.01
2018-11-06T02:07:45.289Z,56258.86
2018-11-06T02:10:15.152Z,56236.23
2018-11-06T02:12:45.216Z,56206.41
2018-11-06T02:15:14.416Z,56242.40
2018-11-06T02:17:44.367Z,56234.18
2018-11-06T02:20:14.175Z,56228.01
2018-11-06T02:22:44.155Z,56242.40
2018-11-06T02:25:13.779Z,56218.75
2018-11-06T02:27:49.736Z,56243.43
2018-11-06T02:30:18.861Z,56251.66
2018-11-06T02:32:48.270Z,56222.87
2018-11-06T02:35:17.371Z,56244.46
2018-11-06T02:37:46.512Z,56249.60
2018-11-06T02:40:16.443Z,56242.40
2018-11-06T02:42:45.587Z,56213.61
2018-11-06T02:45:14.958Z,56261.94
2018-11-06T02:47:44.489Z,56250.63
2018-11-06T02:50:14.507Z,56233.15
2018-11-06T02:52:44.179Z,56225.95
2018-11-06T02:55:13.702Z,56229.04
2018-11-06T02:57:43.345Z,56251.66
2018-11-06T03:00:15.099Z,56234.18
2018-11-06T03:02:44.866Z,56244.46
2018-11-06T03:05:14.001Z,56223.89
2018-11-06T03:07:43.168Z,56225.95
2018-11-06T03:10:13.115Z,56231.09
2018-11-06T03:12:43.240Z,56249.60
2018-11-06T03:15:13.614Z,56222.87
2018-11-06T03:17:42.799Z,56219.78
2018-11-06T03:20:12.654Z,56253.71
2018-11-06T03:22:42.218Z,56226.98
2018-11-06T03:25:11.655Z,56215.67
2018-11-06T03:27:40.758Z,56220.81
2018-11-06T03:30:13.350Z,56273.25
2018-11-06T03:32:42.553Z,56225.95
2018-11-06T03:35:12.951Z,56240.34
2018-11-06T03:37:42.146Z,56257.83
2018-11-06T03:40:11.743Z,56225.95
2018-11-06T03:42:41.770Z,56289.70
2018-11-06T03:45:11.783Z,56254.74
2018-11-06T03:47:40.919Z,56262.97
2018-11-06T03:50:11.522Z,56296.90
2018-11-06T03:52:40.688Z,56262.97
2018-11-06T03:55:10.107Z,56247.54
2018-11-06T03:57:39.217Z,56226.98
2018-11-06T04:00:11.663Z,56251.66
2018-11-06T04:02:41.108Z,56238.29
2018-11-06T04:05:10.604Z,56217.72
2018-11-06T04:07:39.784Z,56237.26
2018-11-06T04:10:10.215Z,56235.20
2018-11-06T04:12:40.036Z,56242.40
2018-11-06T04:15:09.592Z,56246.52
2018-11-06T04:17:38.831Z,56246.52
2018-11-06T04:20:08.845Z,56209.50
2018-11-06T04:22:38.021Z,56256.80
2018-11-06T04:25:07.685Z,56274.28
2018-11-06T04:27:36.851Z,56271.20
2018-11-06T04:30:08.974Z,56252.69
2018-11-06T04:32:38.112Z,56260.91
2018-11-06T04:35:07.886Z,56284.56
2018-11-06T04:37:37.224Z,56235.20
2018-11-06T04:40:08.466Z,56243.43
2018-11-06T04:42:37.599Z,56223.89
2018-11-06T04:45:07.366Z,56249.60
2018-11-06T04:47:36.537Z,56232.12
2018-11-06T04:50:05.920Z,56244.46
2018-11-06T04:52:35.012Z,56232.12
2018-11-06T04:55:04.210Z,56234.18
2018-11-06T04:57:33.337Z,56210.52
2018-11-06T05:00:02.435Z,56249.60
2018-11-06T05:02:31.556Z,56207.44
2018-11-06T05:05:00.687Z,56219.78
2018-11-06T05:07:29.846Z,56243.43
2018-11-06T05:09:58.927Z,56229.04
2018-11-06T05:12:28.050Z,56240.34
2018-11-06T05:14:57.228Z,56248.57
2018-11-06T05:17:27.201Z,56257.83
2018-11-06T05:19:56.347Z,56225.95
2018-11-06T05:22:25.542Z,56223.89
2018-11-06T05:24:54.695Z,56223.89
2018-11-06T05:27:23.873Z,56242.40
2018-11-06T05:29:52.919Z,56234.18
2018-11-06T05:32:22.059Z,56226.98
2018-11-06T05:34:51.274Z,56244.46
2018-11-06T05:37:20.365Z,56233.15
2018-11-06T05:40:06.745Z,56211.55
2018-11-06T05:42:35.882Z,56215.67
2018-11-06T05:45:05.043Z,56256.80
2018-11-06T05:47:34.185Z,56260.91
2018-11-06T05:50:03.325Z,56271.20
2018-11-06T05:52:32.448Z,56223.89
2018-11-06T05:55:01.599Z,56209.50
2018-11-06T05:57:30.685Z,56231.09
2018-11-06T05:59:59.797Z,56258.86
2018-11-06T06:02:29.022Z,56274.28
2018-11-06T06:04:58.102Z,56228.01
2018-11-06T06:07:27.281Z,56236.23
2018-11-06T06:09:56.403Z,56225.95
2018-11-06T06:12:25.547Z,56236.23
2018-11-06T06:14:54.701Z,56247.54
2018-11-06T06:17:23.997Z,56209.50
2018-11-06T06:19:53.168Z,56258.86
2018-11-06T06:22:22.277Z,56247.54
2018-11-06T06:24:51.418Z,56223.89
2018-11-06T06:27:20.553Z,56234.18
2018-11-06T06:29:49.670Z,56246.52
2018-11-06T06:32:18.798Z,56208.47
2018-11-06T06:34:47.955Z,56249.60
2018-11-06T06:37:17.021Z,56262.97
2018-11-06T06:39:46.206Z,56247.54
2018-11-06T06:42:15.333Z,56222.87
2018-11-06T06:44:44.522Z,56231.09
2018-11-06T06:47:13.655Z,56267.08
2018-11-06T06:49:42.765Z,56211.55
2018-11-06T06:52:11.910Z,56188.93
2018-11-06T06:54:41.093Z,56244.46
2018-11-06T06:57:10.179Z,56247.54
2018-11-06T06:59:39.315Z,56245.49
2018-11-06T07:02:08.448Z,56231.09
2018-11-06T07:04:37.576Z,56247.54
2018-11-06T07:07:06.870Z,56241.37
2018-11-06T07:09:36.181Z,56223.89
2018-11-06T07:12:05.363Z,56246.52
2018-11-06T07:14:34.643Z,56244.46
2018-11-06T07:17:03.771Z,56218.75
2018-11-06T07:19:32.906Z,56215.67
2018-11-06T07:22:02.007Z,56222.87
2018-11-06T07:24:31.172Z,56199.21
2018-11-06T07:27:00.294Z,56189.96
2018-11-06T07:29:29.418Z,56223.89
2018-11-06T07:31:58.562Z,56217.72
2018-11-06T07:34:27.822Z,56228.01
2018-11-06T07:36:56.910Z,56207.44
2018-11-06T07:39:26.058Z,56223.89
2018-11-06T07:41:55.245Z,56221.84
2018-11-06T07:44:24.395Z,56199.21
2018-11-06T07:46:53.521Z,56207.44
2018-11-06T07:49:22.663Z,56232.12
2018-11-06T07:51:51.823Z,56204.36
2018-11-06T07:54:20.911Z,56203.33
2018-11-06T07:56:50.053Z,56181.73
2018-11-06T07:59:19.181Z,56188.93
2018-11-06T08:01:55.049Z,56184.82
2018-11-06T08:04:24.265Z,56182.76
2018-11-06T08:06:53.319Z,56189.96
2018-11-06T08:09:22.566Z,56156.03
2018-11-06T08:11:51.703Z,56211.55
2018-11-06T08:14:20.839Z,56201.27
2018-11-06T08:16:50.029Z,56173.51
2018-11-06T08:19:19.513Z,56178.65
2018-11-06T08:21:48.592Z,56214.64
2018-11-06T08:24:17.783Z,56179.68
2018-11-06T08:26:46.882Z,56162.20
2018-11-06T08:29:16.018Z,56197.16
2018-11-06T08:31:45.635Z,56171.45
2018-11-06T08:34:14.405Z,56170.42
2018-11-06T08:36:43.578Z,56176.59
2018-11-06T08:39:12.647Z,56151.91
2018-11-06T08:41:41.979Z,56197.16
2018-11-06T08:44:11.085Z,56142.66
2018-11-06T08:46:40.245Z,56168.37
2018-11-06T08:49:09.404Z,56136.49
2018-11-06T08:51:39.091Z,56084.05
2018-11-06T08:54:08.242Z,56053.20
2018-11-06T08:56:37.370Z,56031.61
2018-11-06T08:59:06.511Z,56016.19
2018-11-06T09:01:35.647Z,56026.47
2018-11-06T09:04:04.890Z,56025.44
2018-11-06T09:06:34.004Z,56022.36
2018-11-06T09:09:03.288Z,56019.27
2018-11-06T09:11:32.424Z,56029.55
2018-11-06T09:14:01.545Z,56052.18
2018-11-06T09:16:30.730Z,56042.92
2018-11-06T09:18:59.878Z,56028.52
2018-11-06T09:21:29.110Z,56043.95
2018-11-06T09:23:58.219Z,56067.60
2018-11-06T09:26:27.333Z,56020.30
2018-11-06T09:28:56.845Z,56086.11
2018-11-06T09:31:27.247Z,56107.70
2018-11-06T09:33:56.565Z,56125.18
2018-11-06T09:36:25.878Z,56131.35
2018-11-06T09:38:55.033Z,56141.63
2018-11-06T09:41:24.613Z,56175.56
2018-11-06T09:43:53.859Z,56218.75
2018-11-06T09:46:23.458Z,56202.30
2018-11-06T09:48:52.598Z,56193.05
2018-11-06T09:51:21.750Z,56201.27
2018-11-06T09:53:50.861Z,56181.73
2018-11-06T09:56:20.020Z,56152.94
2018-11-06T09:58:49.162Z,56208.47
2018-11-06T10:01:18.280Z,56187.90
2018-11-06T10:03:47.519Z,56202.30
2018-11-06T10:06:16.719Z,56170.42
2018-11-06T10:08:45.790Z,56199.21
2018-11-06T10:11:14.935Z,56175.56
2018-11-06T10:13:44.042Z,56158.09
2018-11-06T10:16:13.190Z,56199.21
2018-11-06T10:18:42.459Z,56164.25
2018-11-06T10:21:11.556Z,56211.55
2018-11-06T10:23:40.715Z,56179.68
2018-11-06T10:26:09.911Z,56192.02
2018-11-06T10:28:39.005Z,56213.61
2018-11-06T10:31:08.151Z,56205.38
2018-11-06T10:33:37.269Z,56194.07
2018-11-06T10:36:06.544Z,56184.82
2018-11-06T10:38:35.643Z,56143.69
2018-11-06T10:41:04.787Z,56187.90
2018-11-06T10:43:33.988Z,56171.45
2018-11-06T10:46:03.118Z,56205.38
2018-11-06T10:48:32.248Z,56160.14
2018-11-06T10:51:01.437Z,56193.05
2018-11-06T10:53:30.603Z,56187.90
2018-11-06T10:55:59.685Z,56186.87
2018-11-06T10:58:28.777Z,56193.05
2018-11-06T11:01:03.179Z,56213.61
2018-11-06T11:03:38.934Z,56212.58
2018-11-06T11:06:08.046Z,56179.68
2018-11-06T11:08:37.191Z,56185.85
2018-11-06T11:11:06.395Z,56188.93
2018-11-06T11:13:35.573Z,56195.10
2018-11-06T11:16:04.696Z,56151.91
2018-11-06T11:18:33.859Z,56180.71
2018-11-06T11:21:03.130Z,56200.24
2018-11-06T11:23:32.246Z,56152.94
2018-11-06T11:26:01.378Z,56166.31
2018-11-06T11:28:30.507Z,56170.42
2018-11-06T11:31:00.093Z,56153.97
2018-11-06T11:33:29.248Z,56153.97
2018-11-06T11:35:58.383Z,56137.52
2018-11-06T11:38:27.531Z,56114.90
2018-11-06T11:40:56.659Z,56139.57
2018-11-06T11:43:25.774Z,56139.57
2018-11-06T11:45:54.937Z,56127.23
2018-11-06T11:48:23.966Z,56171.45
2018-11-06T11:50:53.178Z,56142.66
2018-11-06T11:53:22.319Z,56164.25
2018-11-06T11:55:51.391Z,56129.29
2018-11-06T11:58:20.539Z,56139.57
2018-11-06T12:00:49.667Z,56141.63
2018-11-06T12:03:18.838Z,56144.71
2018-11-06T12:05:47.962Z,56114.90
2018-11-06T12:08:17.068Z,56130.32
2018-11-06T12:10:46.221Z,56133.41
2018-11-06T12:13:15.321Z,56117.98
2018-11-06T12:15:44.452Z,56123.12
2018-11-06T12:18:13.623Z,56094.33
2018-11-06T12:20:42.678Z,56110.79
2018-11-06T12:23:11.817Z,56145.75
2018-11-06T12:25:41.101Z,56115.93
2018-11-06T12:28:10.116Z,56098.45
2018-11-06T12:30:39.283Z,56106.67
2018-11-06T12:33:08.401Z,56122.09
2018-11-06T12:35:37.478Z,56115.93
2018-11-06T12:38:06.627Z,56174.54
2018-11-06T12:40:35.728Z,56114.90
2018-11-06T12:43:04.860Z,56117.98
2018-11-06T12:45:33.947Z,56101.53
2018-11-06T12:48:03.106Z,56108.73
2018-11-06T12:50:32.266Z,56101.53
2018-11-06T12:53:01.389Z,56120.04
2018-11-06T12:55:30.511Z,56109.76
2018-11-06T12:57:59.671Z,56111.81
2018-11-06T13:00:28.842Z,56094.33
2018-11-06T13:02:57.971Z,56108.73
2018-11-06T13:05:27.073Z,56116.95
2018-11-06T13:07:56.187Z,56114.90
2018-11-06T13:10:25.365Z,56108.73
2018-11-06T13:12:54.460Z,56102.56
2018-11-06T13:15:23.625Z,56105.64
2018-11-06T13:17:52.741Z,56135.46
2018-11-06T13:20:21.855Z,56131.35
2018-11-06T13:22:50.991Z,56117.98
2018-11-06T13:25:20.080Z,56131.35
2018-11-06T13:27:49.198Z,56136.49
2018-11-06T13:30:19.271Z,56112.84
2018-11-06T13:32:49.090Z,56129.29
2018-11-06T13:35:18.228Z,56146.77
2018-11-06T13:37:47.373Z,56124.15
2018-11-06T13:40:17.067Z,56101.53
2018-11-06T13:42:46.724Z,56114.90
2018-11-06T13:45:18.600Z,56101.53
2018-11-06T13:47:47.673Z,56087.14
2018-11-06T13:50:16.799Z,56145.75
2018-11-06T13:52:45.925Z,56097.42
2018-11-06T13:55:15.866Z,56112.84
2018-11-06T13:57:45.860Z,56077.88
2018-11-06T14:00:17.451Z,56114.90
2018-11-06T14:02:46.709Z,56129.29
2018-11-06T14:05:16.025Z,56109.76
2018-11-06T14:07:45.331Z,56109.76
2018-11-06T14:10:14.462Z,56116.95
2018-11-06T14:12:44.468Z,56120.04
2018-11-06T14:15:13.610Z,56094.33
2018-11-06T14:17:42.730Z,56122.09
2018-11-06T14:20:13.254Z,56132.38
2018-11-06T14:22:42.561Z,56121.07
2018-11-06T14:25:11.668Z,56162.20
2018-11-06T14:27:40.859Z,56141.63
2018-11-06T14:30:16.692Z,56131.35
2018-11-06T14:32:46.215Z,56136.49
2018-11-06T14:35:16.349Z,56156.03
2018-11-06T14:37:46.068Z,56151.91
2018-11-06T14:40:15.998Z,56143.69
2018-11-06T14:42:46.040Z,56144.71
2018-11-06T14:45:16.285Z,56100.50
2018-11-06T14:47:45.460Z,56113.87
2018-11-06T14:50:14.695Z,56139.57
2018-11-06T14:52:43.809Z,56167.34
2018-11-06T14:55:14.328Z,56166.31
2018-11-06T14:57:43.440Z,56167.34
2018-11-06T15:00:16.289Z,56139.57
2018-11-06T15:02:46.845Z,56152.94
2018-11-06T15:05:16.421Z,56180.71
2018-11-06T15:07:45.608Z,56147.80
2018-11-06T15:10:14.782Z,56186.87
2018-11-06T15:12:44.256Z,56149.86
2018-11-06T15:15:13.950Z,56188.93
2018-11-06T15:17:44.283Z,56193.05
2018-11-06T15:20:15.192Z,56179.68
2018-11-06T15:22:44.685Z,56162.20
2018-11-06T15:25:14.510Z,56173.51
2018-11-06T15:27:43.639Z,56198.19
2018-11-06T15:30:14.142Z,56195.10
2018-11-06T15:32:43.333Z,56176.59
2018-11-06T15:35:14.696Z,56179.68
2018-11-06T15:37:43.855Z,56207.44
2018-11-06T15:40:15.548Z,56170.42
2018-11-06T15:42:44.835Z,56172.48
2018-11-06T15:45:15.170Z,56184.82
2018-11-06T15:47:45.217Z,56207.44
2018-11-06T15:50:15.792Z,56211.55
2018-11-06T15:52:45.739Z,56187.90
2018-11-06T15:55:14.889Z,56184.82
2018-11-06T15:57:44.033Z,56189.96
2018-11-06T16:00:16.505Z,56222.87
2018-11-06T16:02:45.935Z,56208.47
2018-11-06T16:05:15.093Z,56211.55
2018-11-06T16:07:44.273Z,56192.02
2018-11-06T16:10:16.795Z,56181.73
2018-11-06T16:12:46.176Z,56208.47
2018-11-06T16:15:15.330Z,56199.21
2018-11-06T16:17:44.730Z,56198.19
2018-11-06T16:20:15.164Z,56218.75
2018-11-06T16:22:44.636Z,56200.24
2018-11-06T16:25:15.063Z,56198.19
2018-11-06T16:27:44.640Z,56193.05
2018-11-06T16:30:15.606Z,56194.07
2018-11-06T16:32:44.840Z,56210.52
2018-11-06T16:35:15.324Z,56204.36
2018-11-06T16:37:44.929Z,56213.61
2018-11-06T16:40:14.849Z,56210.52
2018-11-06T16:42:44.774Z,56194.07
2018-11-06T16:45:16.472Z,56223.89
2018-11-06T16:47:46.637Z,56219.78
2018-11-06T16:50:16.750Z,56203.33
2018-11-06T16:52:45.954Z,56224.92
2018-11-06T16:55:15.530Z,56195.10
2018-11-06T16:57:45.153Z,56233.15
2018-11-06T17:00:16.994Z,56203.33
2018-11-06T17:02:46.216Z,56236.23
2018-11-06T17:05:15.838Z,56232.12
2018-11-06T17:07:45.321Z,56234.18
2018-11-06T17:10:15.447Z,56209.50
2018-11-06T17:12:44.596Z,56201.27
2018-11-06T17:15:16.231Z,56212.58
2018-11-06T17:17:46.045Z,56216.70
2018-11-06T17:20:15.722Z,56242.40
2018-11-06T17:22:44.830Z,56225.95
2018-11-06T17:25:16.332Z,56207.44
2018-11-06T17:27:45.447Z,56228.01
2018-11-06T17:30:16.824Z,56188.93
2018-11-06T17:32:46.065Z,56222.87
2018-11-06T17:35:16.530Z,56224.92
2018-11-06T17:37:45.993Z,56240.34
2018-11-06T17:40:20.375Z,56219.78
2018-11-06T17:42:49.529Z,56242.40
2018-11-06T17:45:21.186Z,56215.67
2018-11-06T17:47:50.327Z,56230.06
2018-11-06T17:50:19.579Z,56224.92
2018-11-06T17:52:48.750Z,56251.66
2018-11-06T17:55:19.266Z,56205.38
2018-11-06T17:57:48.347Z,56206.41
2018-11-06T18:00:19.806Z,56209.50
2018-11-06T18:02:48.949Z,56259.88
2018-11-06T18:05:19.324Z,56250.63
2018-11-06T18:07:48.445Z,56203.33
2018-11-06T18:10:18.908Z,56214.64
2018-11-06T18:12:47.981Z,56203.33
2018-11-06T18:15:17.121Z,56236.23
2018-11-06T18:17:46.421Z,56242.40
2018-11-06T18:20:15.931Z,56209.50
2018-11-06T18:22:45.609Z,56223.89
2018-11-06T18:25:15.021Z,56205.38
2018-11-06T18:27:44.084Z,56248.57
2018-11-06T18:30:15.820Z,56246.52
2018-11-06T18:32:44.918Z,56235.20
2018-11-06T18:35:15.104Z,56226.98
2018-11-06T18:37:44.212Z,56221.84
2018-11-06T18:40:16.452Z,56195.10
2018-11-06T18:42:46.484Z,56219.78
2018-11-06T18:45:15.948Z,56247.54
2018-11-06T18:47:45.174Z,56229.04
2018-11-06T18:50:15.501Z,56236.23
2018-11-06T18:52:45.882Z,56246.52
2018-11-06T18:55:14.991Z,56287.65
2018-11-06T18:57:44.333Z,56196.13
2018-11-06T19:00:15.337Z,56234.18
2018-11-06T19:02:45.789Z,56200.24
2018-11-06T19:05:15.522Z,56248.57
2018-11-06T19:07:44.629Z,56236.23
2018-11-06T19:10:14.767Z,56249.60
2018-11-06T19:12:44.172Z,56199.21
2018-11-06T19:15:16.622Z,56213.61
2018-11-06T19:17:46.442Z,56184.82
2018-11-06T19:20:15.952Z,56180.71
2018-11-06T19:22:45.115Z,56235.20
2018-11-06T19:25:14.861Z,56212.58
2018-11-06T19:27:44.217Z,56225.95
2018-11-06T19:30:15.527Z,56208.47
2018-11-06T19:32:44.608Z,56213.61
2018-11-06T19:35:13.789Z,56247.54
2018-11-06T19:37:43.060Z,56214.64
2018-11-06T19:40:13.669Z,56232.12
2018-11-06T19:42:43.601Z,56246.52
2018-11-06T19:45:13.253Z,56210.52
2018-11-06T19:47:42.392Z,56222.87
2018-11-06T19:50:13.536Z,56217.72
2018-11-06T19:52:42.635Z,56238.29
2018-11-06T19:55:13.010Z,56257.83
2018-11-06T19:57:42.128Z,56216.70
2018-11-06T20:00:17.925Z,56255.77
2018-11-06T20:02:48.218Z,56223.89
2018-11-06T20:05:18.417Z,56217.72
2018-11-06T20:07:48.613Z,56239.32
2018-11-06T20:10:19.848Z,56261.94
2018-11-06T20:12:49.893Z,56260.91
2018-11-06T20:15:19.058Z,56267.08
2018-11-06T20:17:48.336Z,56235.20
2018-11-06T20:20:23.236Z,56230.06
2018-11-06T20:22:52.395Z,56247.54
2018-11-06T20:25:21.516Z,56218.75
2018-11-06T20:27:51.253Z,56245.49
2018-11-06T20:30:22.792Z,56232.12
2018-11-06T20:32:51.876Z,56270.17
2018-11-06T20:35:21.000Z,56248.57
2018-11-06T20:37:50.144Z,56262.97
2018-11-06T20:40:20.674Z,56221.84
2018-11-06T20:42:49.899Z,56243.43
2018-11-06T20:45:19.671Z,56253.71
2018-11-06T20:47:48.798Z,56271.20
2018-11-06T20:50:22.774Z,56231.09
2018-11-06T20:52:51.948Z,56254.74
2018-11-06T20:55:21.207Z,56261.94
2018-11-06T20:57:50.389Z,56257.83
2018-11-06T21:00:22.672Z,56232.12
2018-11-06T21:02:52.882Z,56208.47
2018-11-06T21:05:22.011Z,56266.05
2018-11-06T21:07:51.269Z,56252.69
2018-11-06T21:10:22.068Z,56233.15
2018-11-06T21:12:51.186Z,56218.75
2018-11-06T21:15:20.287Z,56215.67
2018-11-06T21:17:49.420Z,56268.11
2018-11-06T21:20:18.890Z,56225.95
2018-11-06T21:22:47.950Z,56246.52
2018-11-06T21:25:17.136Z,56247.54
2018-11-06T21:27:46.364Z,56234.18
2018-11-06T21:30:17.250Z,56245.49
2018-11-06T21:32:47.718Z,56250.63
2018-11-06T21:35:16.898Z,56228.01
2018-11-06T21:37:46.028Z,56205.38
2018-11-06T21:40:17.296Z,56225.95
2018-11-06T21:42:46.907Z,56218.75
2018-11-06T21:45:16.631Z,56230.06
2018-11-06T21:47:46.508Z,56210.52
2018-11-06T21:50:16.476Z,56224.92
2018-11-06T21:52:45.632Z,56225.95
2018-11-06T21:55:15.953Z,56224.92
2018-11-06T21:57:45.181Z,56210.52
2018-11-06T22:00:16.825Z,56214.64
2018-11-06T22:02:45.882Z,56232.12
2018-11-06T22:05:16.347Z,56240.34
2018-11-06T22:07:45.620Z,56210.52
2018-11-06T22:10:15.970Z,56275.31
2018-11-06T22:12:45.633Z,56224.92
2018-11-06T22:15:16.019Z,56211.55
2018-11-06T22:17:45.152Z,56269.14
2018-11-06T22:20:15.589Z,56238.29
2018-11-06T22:22:45.233Z,56233.15
2018-11-06T22:25:14.337Z,56234.18
2018-11-06T22:27:43.657Z,56252.69
2018-11-06T22:30:14.360Z,56232.12
2018-11-06T22:32:44.015Z,56219.78
2018-11-06T22:35:14.282Z,56235.20
2018-11-06T22:37:43.485Z,56238.29
2018-11-06T22:40:13.831Z,56230.06
2018-11-06T22:42:42.926Z,56211.55
2018-11-06T22:45:13.558Z,56230.06
2018-11-06T22:47:42.945Z,56252.69
2018-11-06T22:50:16.336Z,56216.70
2018-11-06T22:52:46.279Z,56223.89
2018-11-06T22:55:15.593Z,56229.04
2018-11-06T22:57:44.946Z,56225.95
2018-11-06T23:00:16.966Z,56258.86
2018-11-06T23:02:46.070Z,56220.81
2018-11-06T23:05:15.514Z,56207.44
2018-11-06T23:07:49.899Z,56256.80
2018-11-06T23:10:19.013Z,56260.91
2018-11-06T23:12:48.129Z,56254.74
2018-11-06T23:15:17.230Z,56239.32
2018-11-06T23:17:46.324Z,56248.57
2018-11-06T23:20:15.466Z,56258.86
2018-11-06T23:22:44.593Z,56245.49
2018-11-06T23:25:13.774Z,56230.06
2018-11-06T23:27:43.105Z,56254.74
2018-11-06T23:30:14.096Z,56210.52
2018-11-06T23:32:43.438Z,56255.77
2018-11-06T23:35:12.522Z,56206.41
2018-11-06T23:37:41.645Z,56243.43
2018-11-06T23:40:11.263Z,56223.89
2018-11-06T23:42:40.686Z,56258.86
2018-11-06T23:45:10.258Z,56218.75
2018-11-06T23:47:39.392Z,56271.20
2018-11-06T23:50:10.326Z,56224.92
2018-11-06T23:52:39.691Z,56265.03
2018-11-06T23:55:09.267Z,56257.83
2018-11-06T23:57:38.352Z,56226.98
